Scottsburg, VA (24589)

2:43 PM EDT on September 18, 2014 (GMT -0400)
Scottsburg, VA | Change Station
CLOSE
Current Station
Personal Weather Station
Location: Scottsburg, VA
Elevation: 348 ft
Nearby Weather Stations

Elev 348 ft 36.70 °N, 78.66 °W | Updated 10 minutes ago

Partly Cloudy
Partly Cloudy
77.6 °F
Feels Like 79 °F
N
6.0
Wind Variable Wind from East
Gusts 7.0 mph

Today
High -- | Low -- °F
--% Chance of Precip.
Yesterday
High -- | Low -- °F
Precip. -- in
6:59 AM 7:18 PM
Waning Crescent, 25% visible
Pressure 30.01 in
Visibility 10.0 miles
Clouds Scattered Clouds 4200 ft
Scattered Clouds 4800 ft
Scattered Clouds 6500 ft
Heat Index 79 °F
Dew Point 63 °F
Humidity 62%
Rainfall 0.00 in
Snow Depth Not available.
UV 6 out of 12
Pollen 6.10 out of 12
Air Quality Not available.
Flu Activity Not available.
METAR KHNZ 181835Z AUTO 00000KT 10SM SCT042 SCT048 SCT065 25/13 A3001 RMK AO2 T02500127

More Conditions Fewer Conditions

Pressure 30.01 in
Visibility 10.0 miles
Clouds Scattered Clouds 4200 ft
Scattered Clouds 4800 ft
Scattered Clouds 6500 ft
Heat Index 79 °F
Dew Point 63 °F
Humidity 62%
Rainfall 0.00 in
Snow Depth Not available.
UV 6 out of 12
Pollen 6.10 out of 12
Air Quality Not available.
Flu Activity Not available.
METAR KHNZ 181835Z AUTO 00000KT 10SM SCT042 SCT048 SCT065 25/13 A3001 RMK AO2 T02500127

More Conditions Fewer Conditions

10-Day Weather Forecast

Almanac

Astronomy

Sep. 18, 2014 Rise Set
Actual Time 6:59 AM EDT 7:18 PM EDT
Civil Twilight 6:33 AM EDT 7:43 PM EDT
Nautical Twilight 6:03 AM EDT 8:14 PM EDT
Astronomical Twilight 5:32 AM EDT 8:44 PM EDT
Moon 1:56 AM EDT 4:02 PM EDT
Length of Visible Light 13h 10m
Length of Day
12h 18m
Tomorrow will be 2m 20s shorter.
Waning Crescent, 25% of the Moon is Illuminated
Today
Waning Crescent
Sep 24
New
Oct 1
First Quarter
Oct 8
Full
Oct 15
Last Quarter

Today's Extremes

State Highs State Lows

Community

WunderPhotos

Upload Photos

1,754,417 photos uploaded!

WunderBlogs® & News

Nearby

Snow Depth

Station Depth Elevation
No new snow has been reported.

Earthquake Activity

City Distance Mag. Time & Date
No recent earthquake activity has been reported nearby.
Minimum magnitude displayed is 2.5.

Coastal Water Temperatures

Place Temperature
No Stations Reporting

Nearby Weather Stations